createdAt,value
2022-12-23T00:01:00.417Z,32.59
2022-12-23T00:01:57.876Z,33.43
2022-12-23T00:02:55.424Z,31.69
2022-12-23T00:03:56.424Z,31.55
2022-12-23T00:04:53.888Z,38.69
2022-12-23T00:05:51.714Z,42.12
2022-12-23T00:06:49.022Z,39.85
2022-12-23T00:07:46.487Z,37.07
2022-12-23T00:08:44.288Z,36.35
2022-12-23T00:09:41.648Z,47.71
2022-12-23T00:10:40.036Z,53.64
2022-12-23T00:11:57.296Z,54.37
2022-12-23T00:13:13.050Z,42.37
2022-12-23T00:14:28.734Z,42.75
2022-12-23T00:15:26.113Z,44.95
2022-12-23T00:16:23.624Z,41.39
2022-12-23T00:17:23.156Z,40.88
2022-12-23T00:18:20.737Z,37.52
2022-12-23T00:19:18.461Z,38.49
2022-12-23T00:20:15.955Z,36.62
2022-12-23T00:21:15.104Z,35.15
2022-12-23T00:22:12.419Z,35.68
2022-12-23T00:23:09.915Z,34.17
2022-12-23T00:24:07.300Z,31.66
2022-12-23T00:25:04.709Z,31.39
2022-12-23T00:26:02.901Z,31.16
2022-12-23T00:27:00.200Z,31.54
2022-12-23T00:28:04.292Z,31.69
2022-12-23T00:29:01.654Z,31.99
2022-12-23T00:29:59.012Z,33.08
2022-12-23T00:30:56.389Z,35.24
2022-12-23T00:31:53.775Z,46.55
2022-12-23T00:32:51.174Z,46.55
2022-12-23T00:33:49.797Z,46.58
2022-12-23T00:34:47.155Z,44.40
2022-12-23T00:35:45.106Z,37.46
2022-12-23T00:36:42.660Z,36.83
2022-12-23T00:37:40.172Z,38.77
2022-12-23T00:38:56.016Z,36.29
2022-12-23T00:40:11.940Z,35.20
2022-12-23T00:41:32.390Z,38.34
2022-12-23T00:42:48.169Z,39.61
2022-12-23T00:43:45.545Z,38.76
2022-12-23T00:44:42.944Z,39.73
2022-12-23T00:45:40.332Z,39.57
2022-12-23T00:46:37.786Z,39.22
2022-12-23T00:47:53.751Z,40.55
2022-12-23T00:49:09.508Z,37.80
2022-12-23T00:50:07.260Z,34.07
2022-12-23T00:51:04.668Z,35.59
2022-12-23T00:52:02.613Z,34.14
2022-12-23T00:53:00.058Z,32.51
2022-12-23T00:53:57.451Z,33.72
2022-12-23T00:54:54.812Z,34.50
2022-12-23T00:55:52.656Z,34.14
2022-12-23T00:56:50.017Z,33.90
2022-12-23T00:57:47.425Z,33.61
2022-12-23T00:58:44.757Z,34.45
2022-12-23T00:59:42.107Z,32.57
2022-12-23T01:00:58.553Z,31.92
2022-12-23T01:02:14.507Z,34.92
2022-12-23T01:03:31.606Z,36.66
2022-12-23T01:04:47.461Z,38.54
2022-12-23T01:05:44.826Z,37.47
2022-12-23T01:06:42.136Z,38.81
2022-12-23T01:07:39.472Z,39.19
2022-12-23T01:08:38.056Z,39.04
2022-12-23T01:09:35.658Z,38.21
2022-12-23T01:10:34.833Z,38.24
2022-12-23T01:11:32.647Z,38.04
2022-12-23T01:12:30.066Z,39.13
2022-12-23T01:13:27.438Z,41.27
2022-12-23T01:14:25.040Z,42.66
2022-12-23T01:15:22.472Z,43.61
2022-12-23T01:16:19.880Z,45.07
2022-12-23T01:17:17.329Z,44.56
2022-12-23T01:18:14.716Z,44.77
2022-12-23T01:19:12.627Z,44.29
2022-12-23T01:20:10.312Z,41.46
2022-12-23T01:21:09.218Z,41.64
2022-12-23T01:22:06.720Z,41.82
2022-12-23T01:23:04.233Z,42.38
2022-12-23T01:24:01.633Z,47.27
2022-12-23T01:24:58.961Z,47.40
2022-12-23T01:25:59.888Z,46.68
2022-12-23T01:26:57.545Z,48.73
2022-12-23T01:27:54.922Z,51.03
2022-12-23T01:28:55.823Z,51.45
2022-12-23T01:29:53.230Z,57.24
2022-12-23T01:30:50.568Z,57.35
2022-12-23T01:31:48.032Z,57.13
2022-12-23T01:32:45.414Z,60.61
2022-12-23T01:33:42.993Z,56.34
2022-12-23T01:34:40.327Z,58.90
2022-12-23T01:35:37.724Z,56.40
2022-12-23T01:36:35.082Z,56.11
2022-12-23T01:37:32.427Z,83.59
2022-12-23T01:38:30.029Z,66.87
2022-12-23T01:39:27.410Z,53.03
2022-12-23T01:40:24.812Z,51.47
2022-12-23T01:41:42.508Z,51.41
2022-12-23T01:42:46.532Z,48.82
2022-12-23T01:43:49.560Z,51.06
2022-12-23T01:44:46.829Z,51.43
2022-12-23T01:45:45.071Z,55.56
2022-12-23T01:46:42.392Z,59.02
2022-12-23T01:47:39.707Z,59.04
2022-12-23T01:48:37.980Z,54.42
2022-12-23T01:49:35.453Z,52.20
2022-12-23T01:50:36.568Z,55.05
2022-12-23T01:51:33.946Z,55.05
2022-12-23T01:52:34.777Z,57.63
2022-12-23T01:53:36.098Z,57.46
2022-12-23T01:54:35.277Z,58.00
2022-12-23T01:55:36.171Z,56.24
2022-12-23T01:56:37.981Z,53.66
2022-12-23T01:57:39.300Z,58.96
2022-12-23T01:58:44.193Z,107.95
2022-12-23T02:00:01.420Z,149.96
2022-12-23T02:01:17.684Z,173.05
2022-12-23T02:02:33.554Z,102.73
2022-12-23T02:03:43.106Z,97.97
2022-12-23T02:04:40.641Z,127.93
2022-12-23T02:05:38.439Z,99.19
2022-12-23T02:07:01.817Z,78.53
2022-12-23T02:08:17.714Z,79.87
2022-12-23T02:09:35.272Z,74.08
2022-12-23T02:10:41.757Z,84.10
2022-12-23T02:11:49.363Z,73.74
2022-12-23T02:13:01.865Z,63.43
2022-12-23T02:14:40.571Z,73.21
2022-12-23T02:16:11.259Z,62.80
2022-12-23T02:17:15.690Z,62.89
2022-12-23T02:18:19.135Z,63.78
2022-12-23T02:19:27.139Z,57.26
2022-12-23T02:20:27.263Z,58.38
2022-12-23T02:21:30.492Z,60.27
2022-12-23T02:22:46.668Z,65.63
2022-12-23T02:23:43.960Z,62.38
2022-12-23T02:24:59.263Z,65.30
2022-12-23T02:26:05.424Z,65.16
2022-12-23T02:27:05.545Z,60.43
2022-12-23T02:28:05.655Z,54.63
2022-12-23T02:29:21.512Z,53.41
2022-12-23T02:30:37.616Z,44.64
2022-12-23T02:31:55.224Z,42.10
2022-12-23T02:33:18.786Z,38.50
2022-12-23T02:34:16.063Z,37.12
2022-12-23T02:35:13.448Z,36.82
2022-12-23T02:36:16.926Z,35.50
2022-12-23T02:37:29.249Z,36.66
2022-12-23T02:38:47.140Z,38.99
2022-12-23T02:39:44.428Z,37.36
2022-12-23T02:41:07.852Z,36.07
2022-12-23T02:42:10.618Z,35.79
2022-12-23T02:43:10.678Z,34.40
2022-12-23T02:44:24.331Z,35.50
2022-12-23T02:45:40.218Z,33.47
2022-12-23T02:46:50.201Z,34.32
2022-12-23T02:47:55.069Z,33.44
2022-12-23T02:49:01.897Z,32.61
2022-12-23T02:50:04.098Z,32.18
2022-12-23T02:51:02.875Z,31.52
2022-12-23T02:52:04.123Z,31.62
2022-12-23T02:53:09.404Z,31.39
2022-12-23T02:54:10.422Z,30.83
2022-12-23T02:55:15.111Z,28.22
2022-12-23T02:56:15.244Z,28.82
2022-12-23T02:57:17.009Z,27.98
2022-12-23T02:58:18.082Z,25.85
2022-12-23T02:59:22.410Z,23.30
2022-12-23T03:00:19.928Z,22.64
2022-12-23T03:01:19.615Z,23.22
2022-12-23T03:02:17.565Z,23.89
2022-12-23T03:03:17.272Z,25.47
2022-12-23T03:04:15.248Z,25.62
2022-12-23T03:05:31.119Z,25.47
2022-12-23T03:06:28.411Z,24.92
2022-12-23T03:07:39.251Z,25.14
2022-12-23T03:08:42.755Z,25.48
2022-12-23T03:10:00.369Z,27.00
2022-12-23T03:10:57.702Z,24.67
2022-12-23T03:11:55.038Z,24.58
2022-12-23T03:12:52.438Z,23.69
2022-12-23T03:14:08.228Z,26.14
2022-12-23T03:15:14.551Z,25.26
2022-12-23T03:16:29.375Z,27.31
2022-12-23T03:17:45.261Z,26.17
2022-12-23T03:18:45.454Z,27.39
2022-12-23T03:19:50.196Z,27.85
2022-12-23T03:20:54.817Z,27.13
2022-12-23T03:21:55.006Z,28.19
2022-12-23T03:23:06.272Z,27.84
2022-12-23T03:24:23.921Z,25.04
2022-12-23T03:25:30.163Z,27.13
2022-12-23T03:26:33.839Z,28.50
2022-12-23T03:27:37.285Z,30.62
2022-12-23T03:28:49.312Z,31.73
2022-12-23T03:29:46.605Z,35.73
2022-12-23T03:30:48.488Z,36.05
2022-12-23T03:31:47.810Z,36.25
2022-12-23T03:32:57.964Z,35.68
2022-12-23T03:34:05.224Z,41.71
2022-12-23T03:35:06.917Z,41.40
2022-12-23T03:36:12.214Z,37.67
2022-12-23T03:37:12.130Z,38.61
2022-12-23T03:38:13.047Z,38.98
2022-12-23T03:39:14.538Z,40.57
2022-12-23T03:40:18.726Z,42.52
2022-12-23T03:41:27.274Z,43.14
2022-12-23T03:42:32.283Z,41.04
2022-12-23T03:43:34.134Z,40.70
2022-12-23T03:44:36.435Z,41.52
2022-12-23T03:45:40.810Z,40.05
2022-12-23T03:46:47.076Z,40.19
2022-12-23T03:47:50.779Z,40.25
2022-12-23T03:48:51.981Z,39.92
2022-12-23T03:49:53.986Z,40.03
2022-12-23T03:50:54.552Z,40.11
2022-12-23T03:51:56.730Z,38.17
2022-12-23T03:53:12.708Z,38.93
2022-12-23T03:54:17.645Z,38.94
2022-12-23T03:55:19.986Z,38.20
2022-12-23T03:56:21.698Z,37.80
2022-12-23T03:57:22.231Z,39.88
2022-12-23T03:58:38.185Z,39.84
2022-12-23T03:59:39.120Z,38.08
2022-12-23T04:00:42.331Z,38.20
2022-12-23T04:01:39.743Z,37.24
2022-12-23T04:02:47.518Z,38.49
2022-12-23T04:04:00.666Z,40.44
2022-12-23T04:04:58.008Z,39.46
2022-12-23T04:05:59.819Z,40.02
2022-12-23T04:07:05.471Z,40.64
2022-12-23T04:08:08.616Z,40.56
2022-12-23T04:09:07.883Z,40.00
2022-12-23T04:10:06.478Z,39.45
2022-12-23T04:11:04.247Z,40.75
2022-12-23T04:12:02.042Z,41.19
2022-12-23T04:12:59.587Z,38.76
2022-12-23T04:13:57.116Z,39.31
2022-12-23T04:14:54.550Z,38.29
2022-12-23T04:15:52.108Z,37.50
2022-12-23T04:16:53.857Z,38.05
2022-12-23T04:17:52.125Z,38.99
2022-12-23T04:18:49.465Z,38.59
2022-12-23T04:19:47.310Z,39.44
2022-12-23T04:20:44.629Z,41.19
2022-12-23T04:21:42.021Z,41.13
2022-12-23T04:22:39.732Z,38.21
2022-12-23T04:23:37.168Z,38.87
2022-12-23T04:24:34.469Z,38.13
2022-12-23T04:25:31.999Z,37.35
2022-12-23T04:26:29.358Z,38.39
2022-12-23T04:27:26.741Z,37.69
2022-12-23T04:28:24.106Z,37.35
2022-12-23T04:29:21.507Z,39.13
2022-12-23T04:30:18.892Z,39.83
2022-12-23T04:31:16.361Z,39.06
2022-12-23T04:32:13.821Z,39.81
2022-12-23T04:33:12.157Z,39.81
2022-12-23T04:34:09.529Z,40.14
2022-12-23T04:35:07.114Z,39.72
2022-12-23T04:36:04.566Z,38.82
2022-12-23T04:37:01.953Z,39.92
2022-12-23T04:38:00.193Z,39.43
2022-12-23T04:38:57.581Z,40.41
2022-12-23T04:39:54.929Z,39.81
2022-12-23T04:40:52.273Z,40.82
2022-12-23T04:41:49.609Z,41.90
2022-12-23T04:42:46.978Z,41.75
2022-12-23T04:43:49.368Z,40.28
2022-12-23T04:44:50.049Z,41.61
2022-12-23T04:45:50.697Z,41.02
2022-12-23T04:46:48.025Z,40.14
2022-12-23T04:47:45.484Z,39.53
2022-12-23T04:48:42.845Z,40.86
2022-12-23T04:49:40.275Z,39.86
2022-12-23T04:50:37.607Z,39.46
2022-12-23T04:51:35.004Z,40.88
2022-12-23T04:52:32.389Z,40.35
2022-12-23T04:53:29.793Z,40.20
2022-12-23T04:54:27.204Z,41.15
2022-12-23T04:55:24.591Z,42.62
2022-12-23T04:56:22.012Z,44.59
2022-12-23T04:57:19.337Z,45.03
2022-12-23T04:58:16.671Z,45.67
2022-12-23T04:59:14.156Z,46.92
2022-12-23T05:00:11.699Z,44.60
2022-12-23T05:01:10.930Z,45.43
2022-12-23T05:02:09.084Z,47.31
2022-12-23T05:03:06.557Z,45.71
2022-12-23T05:04:04.007Z,45.09
2022-12-23T05:05:01.455Z,43.40
2022-12-23T05:05:58.863Z,41.99
2022-12-23T05:06:56.193Z,40.42
2022-12-23T05:08:01.902Z,36.86
2022-12-23T05:08:59.287Z,38.14
2022-12-23T05:10:01.671Z,37.89
2022-12-23T05:10:59.484Z,36.74
2022-12-23T05:11:56.797Z,36.10
2022-12-23T05:12:54.141Z,37.37
2022-12-23T05:13:51.516Z,34.70
2022-12-23T05:14:48.940Z,33.82
2022-12-23T05:15:46.747Z,33.26
2022-12-23T05:16:44.166Z,30.72
2022-12-23T05:17:41.529Z,28.19
2022-12-23T05:18:38.852Z,27.22
2022-12-23T05:19:36.355Z,29.38
2022-12-23T05:20:33.718Z,30.59
2022-12-23T05:21:31.212Z,30.91
2022-12-23T05:22:28.548Z,30.47
2022-12-23T05:23:25.982Z,31.23
2022-12-23T05:24:23.363Z,29.81
2022-12-23T05:25:20.711Z,31.63
2022-12-23T05:26:18.225Z,32.21
2022-12-23T05:27:15.627Z,29.73
2022-12-23T05:28:13.933Z,29.04
2022-12-23T05:29:11.281Z,29.99
2022-12-23T05:30:08.939Z,32.05
2022-12-23T05:31:07.822Z,32.58
2022-12-23T05:32:05.309Z,33.09
2022-12-23T05:33:02.754Z,34.70
2022-12-23T05:34:06.059Z,34.03
2022-12-23T05:35:04.085Z,32.42
2022-12-23T05:36:01.620Z,33.56
2022-12-23T05:36:58.954Z,34.50
2022-12-23T05:37:57.818Z,34.85
2022-12-23T05:38:55.180Z,37.05
2022-12-23T05:39:52.496Z,37.12
2022-12-23T05:40:50.389Z,35.93
2022-12-23T05:41:47.739Z,38.56
2022-12-23T05:42:45.508Z,39.58
2022-12-23T05:43:43.068Z,40.62
2022-12-23T05:44:40.421Z,41.55
2022-12-23T05:45:38.153Z,42.86
2022-12-23T05:46:35.650Z,46.13
2022-12-23T05:47:33.005Z,47.94
2022-12-23T05:48:30.386Z,48.79
2022-12-23T05:49:27.793Z,51.45
2022-12-23T05:50:25.152Z,51.61
2022-12-23T05:51:22.475Z,50.55
2022-12-23T05:52:19.853Z,51.87
2022-12-23T05:53:17.319Z,52.68
2022-12-23T05:54:14.681Z,52.16
2022-12-23T05:55:12.018Z,55.63
2022-12-23T05:56:09.407Z,55.69
2022-12-23T05:57:06.784Z,56.32
2022-12-23T05:58:04.141Z,54.79
2022-12-23T05:59:01.463Z,56.03
2022-12-23T05:59:58.899Z,55.56
2022-12-23T06:00:56.262Z,55.53
2022-12-23T06:01:53.668Z,54.41
2022-12-23T06:02:53.765Z,54.22
2022-12-23T06:03:51.790Z,56.28
2022-12-23T06:04:49.791Z,57.32
2022-12-23T06:05:50.065Z,56.08
2022-12-23T06:06:47.370Z,55.92
2022-12-23T06:07:44.707Z,57.24
2022-12-23T06:08:42.048Z,56.68
2022-12-23T06:09:39.395Z,54.93
2022-12-23T06:10:36.733Z,56.59
2022-12-23T06:11:34.090Z,56.54
2022-12-23T06:12:31.490Z,56.55
2022-12-23T06:13:28.931Z,53.72
2022-12-23T06:14:29.140Z,51.55
2022-12-23T06:15:26.954Z,49.34
2022-12-23T06:16:24.421Z,48.52
2022-12-23T06:17:21.837Z,49.21
2022-12-23T06:18:19.161Z,50.54
2022-12-23T06:19:16.748Z,51.44
2022-12-23T06:20:20.409Z,51.27
2022-12-23T06:21:18.142Z,55.60
2022-12-23T06:22:15.699Z,52.24
2022-12-23T06:23:13.119Z,49.41
2022-12-23T06:24:10.722Z,50.92
2022-12-23T06:25:08.227Z,49.54
2022-12-23T06:26:05.660Z,50.73
2022-12-23T06:27:02.978Z,48.99
2022-12-23T06:28:00.257Z,49.40
2022-12-23T06:28:57.599Z,46.35
2022-12-23T06:29:55.048Z,43.60
2022-12-23T06:30:53.772Z,39.13
2022-12-23T06:31:51.214Z,38.06
2022-12-23T06:32:48.627Z,41.49
2022-12-23T06:33:45.937Z,46.72
2022-12-23T06:34:43.301Z,45.66
2022-12-23T06:35:40.618Z,47.06
2022-12-23T06:36:37.980Z,47.95
2022-12-23T06:37:35.431Z,47.53
2022-12-23T06:38:32.839Z,48.40
2022-12-23T06:39:30.168Z,49.27
2022-12-23T06:40:29.303Z,49.13
2022-12-23T06:41:26.846Z,48.19
2022-12-23T06:42:24.155Z,47.92
2022-12-23T06:43:21.784Z,46.44
2022-12-23T06:44:19.146Z,46.36
2022-12-23T06:45:16.463Z,42.96
2022-12-23T06:46:14.150Z,42.22
2022-12-23T06:47:11.546Z,44.17
2022-12-23T06:48:08.977Z,43.70
2022-12-23T06:49:12.781Z,44.51
2022-12-23T06:50:11.114Z,47.74
2022-12-23T06:51:08.534Z,49.06
2022-12-23T06:52:06.205Z,45.79
2022-12-23T06:53:03.905Z,47.89
2022-12-23T06:54:01.422Z,47.98
2022-12-23T06:54:58.807Z,46.91
2022-12-23T06:55:59.923Z,47.75
2022-12-23T06:56:57.421Z,47.82
2022-12-23T06:57:55.005Z,46.27
2022-12-23T06:58:55.043Z,43.23
2022-12-23T06:59:52.407Z,38.82
2022-12-23T07:00:49.828Z,38.76
2022-12-23T07:01:47.401Z,33.97
2022-12-23T07:02:44.883Z,32.71
2022-12-23T07:03:42.497Z,35.64
2022-12-23T07:04:39.914Z,56.70
2022-12-23T07:05:37.907Z,76.47
2022-12-23T07:06:35.344Z,76.04
2022-12-23T07:07:32.975Z,48.82
2022-12-23T07:08:30.431Z,40.37
2022-12-23T07:09:27.942Z,38.68
2022-12-23T07:10:25.376Z,42.69
2022-12-23T07:11:22.700Z,40.60
2022-12-23T07:12:20.049Z,36.66
2022-12-23T07:13:17.362Z,39.05
2022-12-23T07:14:14.762Z,39.79
2022-12-23T07:15:12.193Z,37.53
2022-12-23T07:16:09.974Z,36.05
2022-12-23T07:17:07.486Z,35.16
2022-12-23T07:18:05.226Z,36.94
2022-12-23T07:19:02.691Z,34.81
2022-12-23T07:20:00.164Z,34.17
2022-12-23T07:21:00.174Z,32.20
2022-12-23T07:21:57.618Z,32.74
2022-12-23T07:22:55.818Z,31.86
2022-12-23T07:23:53.123Z,31.48
2022-12-23T07:24:50.801Z,31.59
2022-12-23T07:25:48.195Z,32.46
2022-12-23T07:26:45.560Z,32.14
2022-12-23T07:27:42.905Z,31.05
2022-12-23T07:28:40.265Z,33.78
2022-12-23T07:29:37.646Z,35.79
2022-12-23T07:30:35.579Z,35.94
2022-12-23T07:31:33.011Z,35.14
2022-12-23T07:32:30.392Z,33.13
2022-12-23T07:33:27.773Z,31.73
2022-12-23T07:34:25.204Z,30.14
2022-12-23T07:35:22.605Z,30.66
2022-12-23T07:36:19.965Z,32.59
2022-12-23T07:37:17.344Z,31.38
2022-12-23T07:38:14.822Z,32.76
2022-12-23T07:39:12.215Z,35.42
2022-12-23T07:40:09.952Z,37.34
2022-12-23T07:41:07.291Z,37.31
2022-12-23T07:42:33.884Z,38.79
2022-12-23T07:43:21.986Z,39.13
2022-12-23T07:44:19.303Z,40.07
2022-12-23T07:45:16.736Z,40.08
2022-12-23T07:46:14.234Z,41.53
2022-12-23T07:47:11.613Z,43.24
2022-12-23T07:48:09.571Z,43.07
2022-12-23T07:49:06.947Z,42.70
2022-12-23T07:50:04.393Z,45.43
2022-12-23T07:51:04.889Z,45.96
2022-12-23T07:52:02.330Z,45.22
2022-12-23T07:52:59.616Z,44.29
2022-12-23T07:53:57.512Z,44.73
2022-12-23T07:54:54.858Z,47.52
2022-12-23T07:55:56.685Z,48.10
2022-12-23T07:56:55.799Z,49.04
2022-12-23T07:57:53.320Z,52.72
2022-12-23T07:58:51.483Z,57.43
2022-12-23T07:59:48.790Z,61.93
2022-12-23T08:00:46.122Z,63.51
2022-12-23T08:01:44.216Z,64.64
2022-12-23T08:02:42.148Z,64.65
2022-12-23T08:03:39.599Z,64.43
2022-12-23T08:04:42.552Z,65.52
2022-12-23T08:05:43.405Z,67.94
2022-12-23T08:06:41.429Z,67.65
2022-12-23T08:07:39.349Z,67.73
2022-12-23T08:08:37.404Z,70.36
2022-12-23T08:09:34.845Z,70.22
2022-12-23T08:10:32.222Z,71.24
2022-12-23T08:11:29.533Z,70.50
2022-12-23T08:12:26.955Z,71.68
2022-12-23T08:13:24.260Z,71.90
2022-12-23T08:14:21.703Z,70.48
2022-12-23T08:15:19.092Z,69.41
2022-12-23T08:16:16.583Z,69.29
2022-12-23T08:17:14.326Z,68.96
2022-12-23T08:18:11.738Z,68.61
2022-12-23T08:19:09.132Z,66.72
2022-12-23T08:20:06.878Z,66.67
2022-12-23T08:21:15.143Z,61.36
2022-12-23T08:22:12.475Z,59.15
2022-12-23T08:23:09.792Z,59.20
2022-12-23T08:24:07.235Z,56.46
2022-12-23T08:25:04.837Z,55.10
2022-12-23T08:26:04.473Z,54.69
2022-12-23T08:27:04.216Z,53.80
2022-12-23T08:28:01.628Z,54.35
2022-12-23T08:29:00.021Z,57.74
2022-12-23T08:29:57.409Z,58.06
2022-12-23T08:30:55.329Z,59.51
2022-12-23T08:31:54.192Z,64.45
2022-12-23T08:32:51.565Z,65.59
2022-12-23T08:33:50.377Z,68.84
2022-12-23T08:34:47.766Z,67.72
2022-12-23T08:35:45.107Z,68.81
2022-12-23T08:36:42.512Z,65.93
2022-12-23T08:37:39.882Z,66.40
2022-12-23T08:38:37.301Z,66.35
2022-12-23T08:39:34.709Z,65.41
2022-12-23T08:40:32.101Z,63.60
2022-12-23T08:41:31.185Z,64.02
2022-12-23T08:42:28.616Z,65.98
2022-12-23T08:43:30.244Z,66.10
2022-12-23T08:44:32.598Z,66.60
2022-12-23T08:45:30.017Z,65.50
2022-12-23T08:46:27.563Z,68.08
2022-12-23T08:47:24.944Z,66.81
2022-12-23T08:48:22.295Z,65.84
2022-12-23T08:49:19.694Z,68.56
2022-12-23T08:50:17.086Z,66.44
2022-12-23T08:51:16.789Z,69.05
2022-12-23T08:52:14.155Z,70.21
2022-12-23T08:53:12.350Z,70.42
2022-12-23T08:54:10.349Z,69.68
2022-12-23T08:55:07.916Z,68.67
2022-12-23T08:56:07.223Z,69.83
2022-12-23T08:57:04.688Z,75.68
2022-12-23T08:58:02.077Z,77.18
2022-12-23T08:59:00.464Z,79.10
2022-12-23T08:59:57.848Z,77.39
2022-12-23T09:00:55.236Z,77.37
2022-12-23T09:01:52.739Z,76.21
2022-12-23T09:02:50.276Z,75.40
2022-12-23T09:03:47.840Z,77.44
2022-12-23T09:04:45.197Z,78.31
2022-12-23T09:05:42.562Z,83.91
2022-12-23T09:06:41.958Z,82.26
2022-12-23T09:07:39.300Z,89.55
2022-12-23T09:08:36.770Z,90.88
2022-12-23T09:09:34.164Z,94.53
2022-12-23T09:10:31.517Z,95.40
2022-12-23T09:11:29.930Z,94.66
2022-12-23T09:12:27.308Z,96.97
2022-12-23T09:13:32.746Z,97.88
2022-12-23T09:14:32.390Z,96.83
2022-12-23T09:15:29.843Z,94.42
2022-12-23T09:16:27.706Z,97.84
2022-12-23T09:17:25.104Z,98.44
2022-12-23T09:18:22.573Z,96.84
2022-12-23T09:19:20.476Z,95.43
2022-12-23T09:20:17.802Z,97.28
2022-12-23T09:21:17.956Z,99.60
2022-12-23T09:22:15.346Z,101.42
2022-12-23T09:23:12.754Z,96.80
2022-12-23T09:24:10.119Z,95.97
2022-12-23T09:25:07.731Z,100.84
2022-12-23T09:26:05.765Z,100.40
2022-12-23T09:27:03.231Z,102.80
2022-12-23T09:28:00.624Z,105.27
2022-12-23T09:28:58.627Z,104.13
2022-12-23T09:29:55.984Z,102.65
2022-12-23T09:30:53.391Z,106.53
2022-12-23T09:31:50.889Z,108.49
2022-12-23T09:32:48.343Z,110.09
2022-12-23T09:33:49.685Z,107.98
2022-12-23T09:34:47.010Z,107.97
2022-12-23T09:35:44.942Z,108.75
2022-12-23T09:36:42.339Z,106.73
2022-12-23T09:37:39.726Z,107.96
2022-12-23T09:38:38.013Z,102.46
2022-12-23T09:39:35.319Z,105.19
2022-12-23T09:40:35.336Z,102.95
2022-12-23T09:41:35.555Z,104.62
2022-12-23T09:42:50.867Z,100.38
2022-12-23T09:44:12.835Z,99.99
2022-12-23T09:45:16.133Z,99.70
2022-12-23T09:46:22.330Z,97.27
2022-12-23T09:47:23.131Z,95.15
2022-12-23T09:48:28.506Z,95.22
2022-12-23T09:49:27.274Z,95.00
2022-12-23T09:50:30.250Z,95.59
2022-12-23T09:51:29.241Z,94.17
2022-12-23T09:52:38.573Z,95.68
2022-12-23T09:53:56.179Z,96.26
2022-12-23T09:54:55.709Z,92.60
2022-12-23T09:56:21.937Z,90.92
2022-12-23T09:57:23.155Z,89.18
2022-12-23T09:58:21.017Z,91.70
2022-12-23T09:59:36.889Z,92.65
2022-12-23T10:00:39.609Z,89.37
2022-12-23T10:01:56.276Z,87.57
2022-12-23T10:03:08.881Z,87.54
2022-12-23T10:04:29.102Z,87.33
2022-12-23T10:05:50.901Z,88.39
2022-12-23T10:07:03.637Z,88.25
2022-12-23T10:08:12.976Z,84.26
2022-12-23T10:09:14.133Z,83.68
2022-12-23T10:10:18.269Z,84.23
2022-12-23T10:11:21.658Z,84.86
2022-12-23T10:12:28.245Z,85.13
2022-12-23T10:13:40.834Z,82.91
2022-12-23T10:14:39.423Z,79.94
2022-12-23T10:15:44.519Z,78.30
2022-12-23T10:16:47.877Z,77.84
2022-12-23T10:17:46.737Z,78.39
2022-12-23T10:19:04.303Z,78.34
2022-12-23T10:20:05.861Z,75.97
2022-12-23T10:21:07.451Z,80.65
2022-12-23T10:22:11.496Z,78.39
2022-12-23T10:23:16.542Z,78.57
2022-12-23T10:24:19.724Z,78.63
2022-12-23T10:25:23.834Z,76.01
2022-12-23T10:26:30.000Z,70.19
2022-12-23T10:27:40.696Z,63.13
2022-12-23T10:28:38.070Z,47.23
2022-12-23T10:29:35.600Z,45.61
2022-12-23T10:31:23.292Z,44.75
2022-12-23T10:32:15.198Z,52.15
2022-12-23T10:33:36.989Z,42.54
2022-12-23T10:34:38.395Z,36.86
2022-12-23T10:36:04.609Z,41.05
2022-12-23T10:37:04.647Z,42.56
2022-12-23T10:38:22.284Z,51.37
2022-12-23T10:39:24.714Z,64.04
2022-12-23T10:40:51.248Z,65.56
2022-12-23T10:42:07.366Z,64.42
2022-12-23T10:43:04.809Z,64.51
2022-12-23T10:44:22.396Z,58.13
2022-12-23T10:45:19.717Z,61.34
2022-12-23T10:46:26.005Z,61.02
2022-12-23T10:47:38.435Z,61.09
2022-12-23T10:48:50.226Z,60.42
2022-12-23T10:49:50.324Z,61.45
2022-12-23T10:50:55.502Z,56.60
2022-12-23T10:51:57.759Z,54.19
2022-12-23T10:52:57.950Z,54.02
2022-12-23T10:53:55.330Z,57.25
2022-12-23T10:54:52.739Z,59.84
2022-12-23T10:55:50.459Z,62.12
2022-12-23T10:56:48.024Z,62.31
2022-12-23T10:57:46.050Z,60.17
2022-12-23T10:58:45.733Z,61.37
2022-12-23T10:59:43.727Z,59.94
2022-12-23T11:00:44.262Z,60.22
2022-12-23T11:01:47.631Z,57.69
2022-12-23T11:02:51.395Z,55.75
2022-12-23T11:03:52.653Z,56.19
2022-12-23T11:04:50.755Z,56.92
2022-12-23T11:05:50.883Z,57.42
2022-12-23T11:07:18.276Z,56.52
2022-12-23T11:08:11.211Z,54.98
2022-12-23T11:09:16.246Z,56.51
2022-12-23T11:10:21.790Z,55.94
2022-12-23T11:11:19.137Z,51.19
2022-12-23T11:12:21.996Z,48.26
2022-12-23T11:13:34.778Z,51.05
2022-12-23T11:14:36.950Z,54.74
2022-12-23T11:15:38.963Z,50.64
2022-12-23T11:16:45.231Z,51.20
2022-12-23T11:17:42.623Z,52.21
2022-12-23T11:18:52.311Z,47.97
2022-12-23T11:20:08.307Z,46.59
2022-12-23T11:21:06.475Z,42.24
2022-12-23T11:22:03.877Z,40.77
2022-12-23T11:23:02.586Z,36.80
2022-12-23T11:24:09.001Z,30.54
2022-12-23T11:25:24.956Z,30.37
2022-12-23T11:26:22.359Z,31.91
2022-12-23T11:27:19.890Z,33.03
2022-12-23T11:28:19.710Z,31.04
2022-12-23T11:29:27.765Z,29.82
2022-12-23T11:30:26.185Z,26.36
2022-12-23T11:31:28.584Z,24.81
2022-12-23T11:32:27.920Z,21.39
2022-12-23T11:33:28.461Z,19.68
2022-12-23T11:34:28.453Z,20.31
2022-12-23T11:35:28.204Z,20.94
2022-12-23T11:36:28.128Z,17.93
2022-12-23T11:37:31.254Z,16.56
2022-12-23T11:38:28.642Z,17.88
2022-12-23T11:39:32.923Z,17.77
2022-12-23T11:40:38.767Z,16.45
2022-12-23T11:41:38.908Z,16.93
2022-12-23T11:42:36.361Z,18.24
2022-12-23T11:43:34.245Z,18.91
2022-12-23T11:44:39.223Z,20.01
2022-12-23T11:45:38.005Z,19.66
2022-12-23T11:46:35.771Z,20.11
2022-12-23T11:47:38.459Z,21.09
2022-12-23T11:48:35.883Z,21.24
2022-12-23T11:49:33.199Z,21.60
2022-12-23T11:50:35.832Z,23.87
2022-12-23T11:51:34.141Z,25.15
2022-12-23T11:52:33.491Z,24.60
2022-12-23T11:53:32.193Z,25.64
2022-12-23T11:54:30.505Z,25.04
2022-12-23T11:55:29.865Z,26.30
2022-12-23T11:56:29.131Z,25.18
2022-12-23T11:57:33.675Z,26.18
2022-12-23T11:58:36.188Z,26.43
2022-12-23T11:59:37.199Z,29.37
2022-12-23T12:00:42.767Z,30.79
2022-12-23T12:01:47.336Z,28.33
2022-12-23T12:02:48.134Z,30.14
2022-12-23T12:03:51.132Z,32.99
2022-12-23T12:04:56.339Z,31.48
2022-12-23T12:05:58.317Z,33.56
2022-12-23T12:06:56.856Z,33.44
2022-12-23T12:07:59.461Z,32.84
2022-12-23T12:08:59.759Z,33.56
2022-12-23T12:09:59.425Z,34.78
2022-12-23T12:11:02.470Z,36.66
2022-12-23T12:12:06.403Z,35.49
2022-12-23T12:13:06.100Z,36.81
2022-12-23T12:14:05.802Z,36.03
2022-12-23T12:15:03.975Z,36.39
2022-12-23T12:16:13.287Z,37.85
2022-12-23T12:17:29.310Z,38.42
2022-12-23T12:18:28.004Z,40.88
2022-12-23T12:19:30.021Z,41.33
2022-12-23T12:20:27.359Z,44.46
2022-12-23T12:21:28.785Z,45.05
2022-12-23T12:22:32.962Z,43.38
2022-12-23T12:23:41.535Z,42.85
2022-12-23T12:24:42.017Z,41.60
2022-12-23T12:25:58.108Z,41.36
2022-12-23T12:27:00.632Z,44.99
2022-12-23T12:28:00.700Z,46.57
2022-12-23T12:29:13.667Z,47.42
2022-12-23T12:30:18.007Z,46.61
2022-12-23T12:31:29.326Z,45.90
2022-12-23T12:32:50.157Z,45.03
2022-12-23T12:33:52.221Z,41.90
2022-12-23T12:35:03.298Z,40.55
2022-12-23T12:36:28.104Z,35.65
2022-12-23T12:37:37.520Z,36.87
2022-12-23T12:38:38.230Z,35.96
2022-12-23T12:39:43.732Z,34.77
2022-12-23T12:40:44.788Z,33.30
2022-12-23T12:41:49.853Z,33.44
2022-12-23T12:42:59.953Z,33.56
2022-12-23T12:44:05.746Z,35.42
2022-12-23T12:45:18.204Z,33.89
2022-12-23T12:46:18.401Z,32.77
2022-12-23T12:48:57.850Z,34.22
2022-12-23T12:50:06.627Z,29.11
2022-12-23T12:51:15.888Z,29.29
2022-12-23T12:52:15.524Z,30.90
2022-12-23T12:53:18.878Z,32.38
2022-12-23T12:54:16.259Z,31.18
2022-12-23T12:55:23.173Z,32.36
2022-12-23T12:56:28.619Z,32.35
2022-12-23T12:57:26.388Z,30.59
2022-12-23T12:58:24.453Z,26.68
2022-12-23T12:59:27.153Z,28.11
2022-12-23T13:00:25.378Z,27.87
2022-12-23T13:01:25.513Z,27.84
2022-12-23T13:02:30.577Z,25.42
2022-12-23T13:03:50.731Z,15.79
2022-12-23T13:05:06.970Z,19.50
2022-12-23T13:06:24.591Z,20.97
2022-12-23T13:07:21.911Z,20.91
2022-12-23T13:08:25.170Z,21.58
2022-12-23T13:09:22.711Z,20.27
2022-12-23T13:10:38.601Z,21.12